createdAt,value
2023-03-29T00:01:11.492Z,3.29
2023-03-29T00:04:03.466Z,3.04
2023-03-29T00:06:36.444Z,3.01
2023-03-29T00:09:10.437Z,3.00
2023-03-29T00:11:42.471Z,3.03
2023-03-29T00:14:16.981Z,3.10
2023-03-29T00:16:50.709Z,3.11
2023-03-29T00:19:22.336Z,3.10
2023-03-29T00:21:54.532Z,3.12
2023-03-29T00:24:26.100Z,3.01
2023-03-29T00:26:57.892Z,3.03
2023-03-29T00:29:32.781Z,3.06
2023-03-29T00:32:04.624Z,3.04
2023-03-29T00:34:36.593Z,3.04
2023-03-29T00:37:09.453Z,3.00
2023-03-29T00:39:42.572Z,3.00
2023-03-29T00:42:17.020Z,3.01
2023-03-29T00:45:09.446Z,2.98
2023-03-29T00:47:46.271Z,3.05
2023-03-29T00:50:22.757Z,3.09
2023-03-29T00:53:00.252Z,3.12
2023-03-29T00:55:35.703Z,3.08
2023-03-29T00:58:13.272Z,3.15
2023-03-29T01:01:07.745Z,3.17
2023-03-29T01:03:46.764Z,3.10
2023-03-29T01:06:47.439Z,3.05
2023-03-29T01:09:22.845Z,3.14
2023-03-29T01:11:58.795Z,3.14
2023-03-29T01:14:37.004Z,3.04
2023-03-29T01:17:13.189Z,3.06
2023-03-29T01:19:51.258Z,3.14
2023-03-29T01:22:34.420Z,3.12
2023-03-29T01:25:16.262Z,3.15
2023-03-29T01:28:02.920Z,3.13
2023-03-29T01:30:40.686Z,3.07
2023-03-29T01:33:21.566Z,3.08
2023-03-29T01:36:00.400Z,3.00
2023-03-29T01:38:38.527Z,3.11
2023-03-29T01:41:10.516Z,3.06
2023-03-29T01:43:48.953Z,3.06
2023-03-29T01:46:29.807Z,3.08
2023-03-29T01:49:05.537Z,3.11
2023-03-29T01:51:42.716Z,3.09
2023-03-29T01:54:20.118Z,3.07
2023-03-29T01:56:53.993Z,2.97
2023-03-29T01:59:34.558Z,3.01
2023-03-29T02:02:08.583Z,3.00
2023-03-29T02:04:45.096Z,2.95
2023-03-29T02:07:19.772Z,2.97
2023-03-29T02:09:54.026Z,3.00
2023-03-29T02:12:26.224Z,3.01
2023-03-29T02:15:01.184Z,2.99
2023-03-29T02:17:34.159Z,3.00
2023-03-29T02:20:14.873Z,3.01
2023-03-29T02:22:53.200Z,3.05
2023-03-29T02:25:26.288Z,3.03
2023-03-29T02:27:58.972Z,3.03
2023-03-29T02:30:38.395Z,2.99
2023-03-29T02:33:14.714Z,2.99
2023-03-29T02:35:53.597Z,2.99
2023-03-29T02:38:28.722Z,3.00
2023-03-29T02:41:03.394Z,2.86
2023-03-29T02:43:36.493Z,2.93
2023-03-29T02:46:11.501Z,2.87
2023-03-29T02:48:44.529Z,2.76
2023-03-29T02:51:21.475Z,2.74
2023-03-29T02:54:00.481Z,2.74
2023-03-29T02:56:32.077Z,2.73
2023-03-29T02:59:04.168Z,2.69
2023-03-29T03:01:38.956Z,2.71
2023-03-29T03:04:10.908Z,2.68
2023-03-29T03:06:42.808Z,2.63
2023-03-29T03:09:14.972Z,2.64
2023-03-29T03:11:46.590Z,2.59
2023-03-29T03:14:19.407Z,2.59
2023-03-29T03:16:53.680Z,2.58
2023-03-29T03:19:25.639Z,2.58
2023-03-29T03:21:57.254Z,2.59
2023-03-29T03:24:29.711Z,2.57
2023-03-29T03:27:01.293Z,2.55
2023-03-29T03:29:33.236Z,2.45
2023-03-29T03:32:08.461Z,2.43
2023-03-29T03:34:40.263Z,2.36
2023-03-29T03:37:12.534Z,2.41
2023-03-29T03:39:44.382Z,2.38
2023-03-29T03:42:16.582Z,2.44
2023-03-29T03:44:48.776Z,2.45
2023-03-29T03:47:23.093Z,2.47
2023-03-29T03:49:54.941Z,2.44
2023-03-29T03:52:26.630Z,2.50
2023-03-29T03:54:58.527Z,2.49
2023-03-29T03:57:30.103Z,2.50
2023-03-29T04:00:02.269Z,2.48
2023-03-29T04:02:36.555Z,2.52
2023-03-29T04:05:17.450Z,2.52
2023-03-29T04:07:49.273Z,2.52
2023-03-29T04:10:21.281Z,2.50
2023-03-29T04:12:52.771Z,2.50
2023-03-29T04:15:24.783Z,2.46
2023-03-29T04:17:59.646Z,2.42
2023-03-29T04:20:31.623Z,2.46
2023-03-29T04:23:03.217Z,2.45
2023-03-29T04:25:35.095Z,2.47
2023-03-29T04:28:06.834Z,2.39
2023-03-29T04:30:39.025Z,2.42
2023-03-29T04:33:13.446Z,2.44
2023-03-29T04:35:45.587Z,2.35
2023-03-29T04:38:17.323Z,2.32
2023-03-29T04:40:49.350Z,2.27
2023-03-29T04:43:21.008Z,2.27
2023-03-29T04:45:53.276Z,2.24
2023-03-29T04:48:30.658Z,2.20
2023-03-29T04:51:02.891Z,2.20
2023-03-29T04:53:34.659Z,2.25
2023-03-29T04:56:06.988Z,2.22
2023-03-29T04:58:38.568Z,2.20
2023-03-29T05:01:10.609Z,2.20
2023-03-29T05:03:45.305Z,2.25
2023-03-29T05:06:17.321Z,2.28
2023-03-29T05:08:48.937Z,2.39
2023-03-29T05:11:32.377Z,2.35
2023-03-29T05:14:07.677Z,2.39
2023-03-29T05:16:39.858Z,2.26
2023-03-29T05:19:14.615Z,2.24
2023-03-29T05:21:46.598Z,2.46
2023-03-29T05:24:18.436Z,2.46
2023-03-29T05:26:52.202Z,2.48
2023-03-29T05:29:24.464Z,2.51
2023-03-29T05:31:56.642Z,2.57
2023-03-29T05:34:31.837Z,2.60
2023-03-29T05:37:04.155Z,2.63
2023-03-29T05:39:37.999Z,2.62
2023-03-29T05:42:12.637Z,2.57
2023-03-29T05:44:44.916Z,2.57
2023-03-29T05:47:17.595Z,2.50
2023-03-29T05:49:53.421Z,2.60
2023-03-29T05:52:26.055Z,2.75
2023-03-29T05:54:57.768Z,2.98
2023-03-29T05:57:29.879Z,3.13
2023-03-29T06:00:02.411Z,3.20
2023-03-29T06:02:35.410Z,3.26
2023-03-29T06:05:10.406Z,3.30
2023-03-29T06:07:46.465Z,3.37
2023-03-29T06:10:20.629Z,3.53
2023-03-29T06:12:52.848Z,3.65
2023-03-29T06:15:25.452Z,3.81
2023-03-29T06:17:57.608Z,3.95
2023-03-29T06:20:32.268Z,4.04
2023-03-29T06:23:04.273Z,3.96
2023-03-29T06:25:36.025Z,4.15
2023-03-29T06:28:08.345Z,4.20
2023-03-29T06:30:40.111Z,4.35
2023-03-29T06:33:12.262Z,4.51
2023-03-29T06:35:50.128Z,4.46
2023-03-29T06:38:23.009Z,4.31
2023-03-29T06:40:54.732Z,4.28
2023-03-29T06:43:26.751Z,4.25
2023-03-29T06:45:58.700Z,4.28
2023-03-29T06:48:31.042Z,4.48
2023-03-29T06:51:05.398Z,4.49
2023-03-29T06:53:44.522Z,4.47
2023-03-29T06:56:16.461Z,4.61
2023-03-29T06:58:48.964Z,4.72
2023-03-29T07:01:21.110Z,4.79
2023-03-29T07:03:53.353Z,5.03
2023-03-29T07:06:28.180Z,5.15
2023-03-29T07:09:01.910Z,5.14
2023-03-29T07:11:34.399Z,5.28
2023-03-29T07:14:06.419Z,5.31
2023-03-29T07:16:39.469Z,5.42
2023-03-29T07:19:12.156Z,5.59
2023-03-29T07:21:46.846Z,5.73
2023-03-29T07:24:20.276Z,5.79
2023-03-29T07:27:12.237Z,5.95
2023-03-29T07:29:44.712Z,6.03
2023-03-29T07:32:17.218Z,6.19
2023-03-29T07:34:49.766Z,6.25
2023-03-29T07:37:25.163Z,6.11
2023-03-29T07:39:57.593Z,6.41
2023-03-29T07:42:29.712Z,6.38
2023-03-29T07:45:02.316Z,6.50
2023-03-29T07:47:35.515Z,6.67
2023-03-29T07:50:08.997Z,6.84
2023-03-29T07:52:44.948Z,7.04
2023-03-29T07:55:18.108Z,7.37
2023-03-29T07:57:52.146Z,7.27
2023-03-29T08:00:25.686Z,7.67
2023-03-29T08:02:58.192Z,7.86
2023-03-29T08:05:40.678Z,7.61
2023-03-29T08:08:17.664Z,7.62
2023-03-29T08:10:50.399Z,7.66
2023-03-29T08:13:22.831Z,7.70
2023-03-29T08:15:55.990Z,7.89
2023-03-29T08:18:28.596Z,8.04
2023-03-29T08:21:02.028Z,8.36
2023-03-29T08:23:37.453Z,8.58
2023-03-29T08:26:11.836Z,8.72
2023-03-29T08:28:44.289Z,8.69
2023-03-29T08:31:17.390Z,8.75
2023-03-29T08:33:49.888Z,8.94
2023-03-29T08:36:22.967Z,9.38
2023-03-29T08:38:58.337Z,9.51
2023-03-29T08:41:42.102Z,10.01
2023-03-29T08:44:28.328Z,10.34
2023-03-29T08:47:10.728Z,10.61
2023-03-29T08:49:47.166Z,11.61
2023-03-29T08:52:26.854Z,12.05
2023-03-29T08:55:04.248Z,12.56
2023-03-29T08:57:43.043Z,12.78
2023-03-29T09:00:25.005Z,11.96
2023-03-29T09:02:59.494Z,11.64
2023-03-29T09:05:37.606Z,11.99
2023-03-29T09:08:16.852Z,11.86
2023-03-29T09:11:04.854Z,12.67
2023-03-29T09:13:47.880Z,13.53
2023-03-29T09:16:31.724Z,13.02
2023-03-29T09:19:17.726Z,12.81
2023-03-29T09:21:58.076Z,12.50
2023-03-29T09:24:43.156Z,12.56
2023-03-29T09:27:24.276Z,12.69
2023-03-29T09:30:08.320Z,12.89
2023-03-29T09:32:47.581Z,13.38
2023-03-29T09:35:26.568Z,12.94
2023-03-29T09:37:59.046Z,13.02
2023-03-29T09:40:37.641Z,12.74
2023-03-29T09:43:18.119Z,13.39
2023-03-29T09:45:57.316Z,13.34
2023-03-29T09:48:33.242Z,14.01
2023-03-29T09:51:08.291Z,14.66
2023-03-29T09:53:40.808Z,14.43
2023-03-29T09:56:16.249Z,14.59
2023-03-29T09:58:51.804Z,14.83
2023-03-29T10:01:26.530Z,14.29
2023-03-29T10:04:05.190Z,14.73
2023-03-29T10:06:39.290Z,14.97
2023-03-29T10:09:19.326Z,15.34
2023-03-29T10:11:57.062Z,14.41
2023-03-29T10:14:38.676Z,15.13
2023-03-29T10:17:19.343Z,15.07
2023-03-29T10:19:53.633Z,16.07
2023-03-29T10:22:29.167Z,16.19
2023-03-29T10:25:01.625Z,16.16
2023-03-29T10:27:37.048Z,16.19
2023-03-29T10:30:22.209Z,16.43
2023-03-29T10:33:00.230Z,15.96
2023-03-29T10:35:36.245Z,15.67
2023-03-29T10:38:13.796Z,15.46
2023-03-29T10:40:48.668Z,14.45
2023-03-29T10:43:26.383Z,14.07
2023-03-29T10:46:11.252Z,13.98
2023-03-29T10:48:49.526Z,13.44
2023-03-29T10:51:22.898Z,12.92
2023-03-29T10:53:55.407Z,12.75
2023-03-29T10:56:38.007Z,12.88
2023-03-29T10:59:35.111Z,12.86
2023-03-29T11:02:40.092Z,12.75
2023-03-29T11:05:25.952Z,12.85
2023-03-29T11:08:15.476Z,13.06
2023-03-29T11:10:59.040Z,12.84
2023-03-29T11:13:40.753Z,12.71
2023-03-29T11:16:24.360Z,12.37
2023-03-29T11:19:24.161Z,12.33
2023-03-29T11:22:20.002Z,12.79
2023-03-29T11:25:29.792Z,12.62
2023-03-29T11:28:11.311Z,12.44
2023-03-29T11:30:59.011Z,12.32
2023-03-29T11:33:53.028Z,12.16
2023-03-29T11:36:46.600Z,12.12
2023-03-29T11:39:30.836Z,12.17
2023-03-29T11:42:12.706Z,11.93
2023-03-29T11:45:02.613Z,11.84
2023-03-29T11:47:47.857Z,12.01
2023-03-29T11:50:37.873Z,12.07
2023-03-29T11:53:29.186Z,12.05
2023-03-29T11:56:29.628Z,12.28
2023-03-29T11:59:16.084Z,12.38
2023-03-29T12:02:05.876Z,12.57
2023-03-29T12:04:54.983Z,12.79
2023-03-29T12:07:40.405Z,12.09
2023-03-29T12:10:29.720Z,11.77
2023-03-29T12:13:18.483Z,11.71
2023-03-29T12:16:03.648Z,11.67
2023-03-29T12:18:46.117Z,12.27
2023-03-29T12:21:30.932Z,12.48
2023-03-29T12:24:23.933Z,12.43
2023-03-29T12:27:28.780Z,12.33
2023-03-29T12:30:24.560Z,12.46
2023-03-29T12:33:27.952Z,12.60
2023-03-29T12:36:24.992Z,12.62
2023-03-29T12:39:03.811Z,12.73
2023-03-29T12:41:50.133Z,12.80
2023-03-29T12:44:28.985Z,12.60
2023-03-29T12:47:08.476Z,12.72
2023-03-29T12:49:50.114Z,12.73
2023-03-29T12:52:31.345Z,12.32
2023-03-29T12:55:11.487Z,12.34
2023-03-29T12:58:12.922Z,12.36
2023-03-29T13:01:02.325Z,12.41
2023-03-29T13:03:52.562Z,12.49
2023-03-29T13:06:54.284Z,12.51
2023-03-29T13:09:45.869Z,12.50
2023-03-29T13:12:33.480Z,12.67
2023-03-29T13:15:10.844Z,12.78
2023-03-29T13:18:01.460Z,12.70
2023-03-29T13:20:53.869Z,12.69
2023-03-29T13:23:40.212Z,12.27
2023-03-29T13:26:34.869Z,12.33
2023-03-29T13:29:23.585Z,12.13
2023-03-29T13:32:07.979Z,12.08
2023-03-29T13:34:52.128Z,12.13
2023-03-29T13:37:39.833Z,11.88
2023-03-29T13:40:32.474Z,11.83
2023-03-29T13:43:20.225Z,11.62
2023-03-29T13:46:19.187Z,11.68
2023-03-29T13:49:01.993Z,11.67
2023-03-29T13:51:56.283Z,11.48
2023-03-29T13:54:37.657Z,11.37
2023-03-29T13:57:18.962Z,11.60
2023-03-29T14:00:24.469Z,11.82
2023-03-29T14:03:10.632Z,11.65
2023-03-29T14:05:45.688Z,11.58
2023-03-29T14:08:28.573Z,11.57
2023-03-29T14:11:04.870Z,11.66
2023-03-29T14:13:38.805Z,11.58
2023-03-29T14:16:18.531Z,11.68
2023-03-29T14:18:52.717Z,11.47
2023-03-29T14:21:27.004Z,11.34
2023-03-29T14:24:04.215Z,11.30
2023-03-29T14:26:53.314Z,11.28
2023-03-29T14:29:26.926Z,11.22
2023-03-29T14:32:11.372Z,11.15
2023-03-29T14:34:45.877Z,11.10
2023-03-29T14:37:27.305Z,11.09
2023-03-29T14:40:26.503Z,10.98
2023-03-29T14:43:10.475Z,10.97
2023-03-29T14:45:47.449Z,10.92
2023-03-29T14:48:28.067Z,10.82
2023-03-29T14:50:59.707Z,10.87
2023-03-29T14:53:38.194Z,10.97
2023-03-29T14:56:19.180Z,10.90
2023-03-29T14:58:52.773Z,10.71
2023-03-29T15:01:29.954Z,10.91
2023-03-29T15:04:11.639Z,10.87
2023-03-29T15:06:47.483Z,10.73
2023-03-29T15:09:27.666Z,10.74
2023-03-29T15:12:09.091Z,10.57
2023-03-29T15:14:49.021Z,10.60
2023-03-29T15:17:47.532Z,10.73
2023-03-29T15:20:28.372Z,10.73
2023-03-29T15:23:05.604Z,10.85
2023-03-29T15:25:42.103Z,10.85
2023-03-29T15:28:31.734Z,10.84
2023-03-29T15:31:36.203Z,10.85
2023-03-29T15:34:40.453Z,11.03
2023-03-29T15:37:21.221Z,11.04
2023-03-29T15:39:56.711Z,11.09
2023-03-29T15:42:29.935Z,11.09
2023-03-29T15:45:08.752Z,11.07
2023-03-29T15:47:43.036Z,10.99
2023-03-29T15:50:18.181Z,10.90
2023-03-29T15:53:05.384Z,10.78
2023-03-29T15:55:58.135Z,10.79
2023-03-29T15:58:39.817Z,10.88
2023-03-29T16:01:34.902Z,10.94
2023-03-29T16:04:37.207Z,10.87
2023-03-29T16:07:18.859Z,10.90
2023-03-29T16:09:52.925Z,10.92
2023-03-29T16:12:26.427Z,10.93
2023-03-29T16:15:12.926Z,10.95
2023-03-29T16:18:11.317Z,10.83
2023-03-29T16:20:50.336Z,10.92
2023-03-29T16:23:28.166Z,10.91
2023-03-29T16:26:08.441Z,10.89
2023-03-29T16:28:48.292Z,10.82
2023-03-29T16:31:23.931Z,10.79
2023-03-29T16:34:04.125Z,10.78
2023-03-29T16:36:39.950Z,10.75
2023-03-29T16:39:14.641Z,10.80
2023-03-29T16:41:54.135Z,10.73
2023-03-29T16:44:31.880Z,10.70
2023-03-29T16:47:05.406Z,10.72
2023-03-29T16:49:43.721Z,10.70
2023-03-29T16:52:21.666Z,10.64
2023-03-29T16:54:57.408Z,10.60
2023-03-29T16:57:30.580Z,10.66
2023-03-29T17:00:05.881Z,10.66
2023-03-29T17:02:40.499Z,10.68
2023-03-29T17:05:41.640Z,10.71
2023-03-29T17:08:17.248Z,10.70
2023-03-29T17:10:59.525Z,10.67
2023-03-29T17:13:36.309Z,10.67
2023-03-29T17:16:12.168Z,10.63
2023-03-29T17:18:49.738Z,10.63
2023-03-29T17:21:26.856Z,10.55
2023-03-29T17:24:01.075Z,10.58
2023-03-29T17:26:46.997Z,10.57
2023-03-29T17:29:23.368Z,10.51
2023-03-29T17:32:02.429Z,10.56
2023-03-29T17:34:38.645Z,10.50
2023-03-29T17:37:13.687Z,10.47
2023-03-29T17:39:53.605Z,10.49
2023-03-29T17:42:41.762Z,10.40
2023-03-29T17:45:24.209Z,10.39
2023-03-29T17:47:57.794Z,10.43
2023-03-29T17:50:32.960Z,10.39
2023-03-29T17:53:10.848Z,10.38
2023-03-29T17:55:47.636Z,10.37
2023-03-29T17:58:21.031Z,10.40
2023-03-29T18:01:05.416Z,10.36
2023-03-29T18:04:00.733Z,10.33
2023-03-29T18:06:47.138Z,10.29
2023-03-29T18:09:56.135Z,10.19
2023-03-29T18:12:43.872Z,10.33
2023-03-29T18:15:28.817Z,10.44
2023-03-29T18:18:06.127Z,10.32
2023-03-29T18:20:42.818Z,10.33
2023-03-29T18:23:29.994Z,10.48
2023-03-29T18:26:43.343Z,10.44
2023-03-29T18:30:16.205Z,10.37
2023-03-29T18:33:42.295Z,10.45
2023-03-29T18:36:24.263Z,10.58
2023-03-29T18:39:06.306Z,10.63
2023-03-29T18:41:43.583Z,10.70
2023-03-29T18:44:15.977Z,10.85
2023-03-29T18:46:49.287Z,10.82
2023-03-29T18:49:28.485Z,10.70
2023-03-29T18:52:06.961Z,10.60
2023-03-29T18:54:40.414Z,10.54
2023-03-29T18:57:30.553Z,10.56
2023-03-29T19:00:13.860Z,10.44
2023-03-29T19:02:47.749Z,10.49
2023-03-29T19:05:25.473Z,10.38
2023-03-29T19:08:04.327Z,10.33
2023-03-29T19:10:42.036Z,10.40
2023-03-29T19:13:18.445Z,10.28
2023-03-29T19:15:51.486Z,10.30
2023-03-29T19:18:27.277Z,10.30
2023-03-29T19:21:00.298Z,10.38
2023-03-29T19:23:35.951Z,10.39
2023-03-29T19:26:13.393Z,10.28
2023-03-29T19:28:49.207Z,10.21
2023-03-29T19:31:38.420Z,10.27
2023-03-29T19:34:11.471Z,10.15
2023-03-29T19:36:43.805Z,10.21
2023-03-29T19:39:15.672Z,10.26
2023-03-29T19:41:47.832Z,10.29
2023-03-29T19:44:23.930Z,10.28
2023-03-29T19:46:56.030Z,10.19
2023-03-29T19:49:27.848Z,10.19
2023-03-29T19:52:15.826Z,10.20
2023-03-29T19:54:47.914Z,10.18
2023-03-29T19:57:20.887Z,10.18
2023-03-29T19:59:56.337Z,10.16
2023-03-29T20:02:28.894Z,10.11
2023-03-29T20:05:02.104Z,10.15
2023-03-29T20:07:38.067Z,10.26
2023-03-29T20:10:11.764Z,10.14
2023-03-29T20:12:44.737Z,10.12
2023-03-29T20:15:20.037Z,10.16
2023-03-29T20:17:59.892Z,10.20
2023-03-29T20:20:36.859Z,10.15
2023-03-29T20:23:13.511Z,10.14
2023-03-29T20:25:56.053Z,10.16
2023-03-29T20:28:33.142Z,10.22
2023-03-29T20:31:16.136Z,10.19
2023-03-29T20:33:51.309Z,10.19
2023-03-29T20:36:25.294Z,10.19
2023-03-29T20:38:59.832Z,10.15
2023-03-29T20:41:32.780Z,10.07
2023-03-29T20:44:05.174Z,10.06
2023-03-29T20:46:47.160Z,10.15
2023-03-29T20:49:19.008Z,10.12
2023-03-29T20:51:58.770Z,10.18
2023-03-29T20:54:34.456Z,10.16
2023-03-29T20:57:07.158Z,10.17
2023-03-29T20:59:39.542Z,10.12
2023-03-29T21:02:18.307Z,10.16
2023-03-29T21:05:00.685Z,10.13
2023-03-29T21:07:35.825Z,10.15
2023-03-29T21:10:08.231Z,10.13
2023-03-29T21:12:40.976Z,10.13
2023-03-29T21:15:18.888Z,9.94
2023-03-29T21:17:55.096Z,10.05
2023-03-29T21:20:33.753Z,10.08
2023-03-29T21:23:09.795Z,10.09
2023-03-29T21:25:47.595Z,10.04
2023-03-29T21:28:19.475Z,9.99
2023-03-29T21:30:52.461Z,9.97
2023-03-29T21:33:30.404Z,10.01
2023-03-29T21:36:06.121Z,10.00
2023-03-29T21:38:46.129Z,9.94
2023-03-29T21:41:19.989Z,9.97
2023-03-29T21:43:53.609Z,9.97
2023-03-29T21:46:26.794Z,9.91
2023-03-29T21:49:02.097Z,9.94
2023-03-29T21:51:37.656Z,9.94
2023-03-29T21:54:10.430Z,10.09
2023-03-29T21:56:46.582Z,10.00
2023-03-29T21:59:20.493Z,9.97
2023-03-29T22:01:58.484Z,9.97
2023-03-29T22:04:37.260Z,10.03
2023-03-29T22:07:13.626Z,10.05
2023-03-29T22:09:49.726Z,10.04
2023-03-29T22:12:28.149Z,10.05
2023-03-29T22:15:02.988Z,10.05
2023-03-29T22:17:37.402Z,10.05
2023-03-29T22:20:16.220Z,10.03
2023-03-29T22:22:59.755Z,10.03
2023-03-29T22:25:47.968Z,10.01
2023-03-29T22:28:21.358Z,10.03
2023-03-29T22:30:53.376Z,10.00
2023-03-29T22:33:25.838Z,9.94
2023-03-29T22:36:00.366Z,9.98
2023-03-29T22:38:33.256Z,10.03
2023-03-29T22:41:05.843Z,10.01
2023-03-29T22:43:39.705Z,9.98
2023-03-29T22:46:13.407Z,9.98
2023-03-29T22:50:34.228Z,9.97
2023-03-29T22:52:50.732Z,9.98
2023-03-29T22:55:22.353Z,9.98
2023-03-29T22:57:54.294Z,9.97
2023-03-29T23:00:26.151Z,9.93
2023-03-29T23:02:58.522Z,9.93
2023-03-29T23:05:30.574Z,9.85
2023-03-29T23:08:07.655Z,9.86
2023-03-29T23:10:41.752Z,9.80
2023-03-29T23:13:18.059Z,9.79
2023-03-29T23:16:25.370Z,9.79
2023-03-29T23:19:28.634Z,9.81
2023-03-29T23:22:01.780Z,9.83
2023-03-29T23:24:36.557Z,9.80
2023-03-29T23:27:08.171Z,9.79
2023-03-29T23:29:41.138Z,9.84
2023-03-29T23:32:12.669Z,9.84
2023-03-29T23:34:44.927Z,9.82
2023-03-29T23:37:16.546Z,9.82
2023-03-29T23:39:51.267Z,9.83
2023-03-29T23:42:23.110Z,9.72
2023-03-29T23:44:55.072Z,9.72
2023-03-29T23:47:26.906Z,9.94
2023-03-29T23:50:02.418Z,9.91
2023-03-29T23:52:35.994Z,9.90
2023-03-29T23:55:12.198Z,10.02
2023-03-29T23:57:43.807Z,10.04
